Time;durP1;ratioP1;P1;durP2;ratioP2;P2;SDS_P1;SDS_P2;PMS_P1;PMS_P2;Temp;Humidity;BMP_temperature;BMP_pressure;BME280_temperature;BME280_humidity;BME280_pressure;Samples;Min_cycle;Max_cycle;Signal;HPM_P1;HPM_P2
2021/09/07 00:02:21;;;;;;;8.13;7.00;;;18.40;60.80;;;18.79;49.56;98298.63;4968256;28;20065;-39
2021/09/07 00:04:49;;;;;;;11.38;7.45;;;18.40;60.90;;;18.78;49.38;98299.63;4968472;28;20062;-39
2021/09/07 00:07:17;;;;;;;7.82;6.40;;;18.40;60.70;;;18.76;49.46;98297.13;4968084;28;20069;-39
2021/09/07 00:09:45;;;;;;;12.30;7.25;;;18.40;60.90;;;18.73;49.75;98297.53;4969454;28;20059;-39
2021/09/07 00:12:15;;;;;;;9.77;7.32;;;18.30;61.40;;;18.66;49.92;98299.34;4970062;28;20114;-39
2021/09/07 00:14:44;;;;;;;9.82;7.28;;;18.20;61.90;;;18.59;50.12;98296.63;4969065;28;20280;-39
2021/09/07 00:17:13;;;;;;;8.30;6.95;;;18.10;62.30;;;18.56;50.43;98298.88;4970046;28;20077;-39
2021/09/07 00:19:41;;;;;;;9.45;6.78;;;18.00;62.80;;;18.50;50.36;98289.69;4968366;28;20065;-39
2021/09/07 00:22:09;;;;;;;9.40;8.18;;;18.00;62.80;;;18.44;50.59;98295.88;4968664;28;20202;-39
2021/09/07 00:24:37;;;;;;;8.63;7.45;;;17.90;63.00;;;18.37;50.82;98289.59;4968927;28;20064;-39
2021/09/07 00:27:05;;;;;;;8.10;6.05;;;17.80;63.60;;;18.32;51.13;98290.19;4968265;28;20368;-39
2021/09/07 00:29:33;;;;;;;8.35;6.65;;;17.80;64.00;;;18.25;51.38;98287.44;4969150;28;20065;-39
2021/09/07 00:32:01;;;;;;;9.07;6.97;;;17.70;64.50;;;18.23;51.59;98292.19;4968775;28;20067;-39
2021/09/07 00:34:30;;;;;;;10.88;7.47;;;17.70;64.50;;;18.23;51.27;98284.09;4968134;28;20049;-39
2021/09/07 00:36:58;;;;;;;8.43;7.47;;;17.70;64.30;;;18.23;51.53;98291.34;4969260;28;20434;-39
2021/09/07 00:39:26;;;;;;;8.73;6.60;;;17.70;64.60;;;18.19;51.54;98282.00;4968236;28;20061;-39
2021/09/07 00:41:54;;;;;;;9.85;7.53;;;17.70;64.60;;;18.17;51.56;98289.44;4967986;28;20054;-39
2021/09/07 00:44:23;;;;;;;10.95;7.55;;;17.60;64.50;;;18.14;51.68;98287.13;4968436;28;20057;-39
2021/09/07 00:46:55;;;;;;;8.73;7.10;;;17.60;64.80;;;18.08;51.87;98281.47;4968289;28;20062;-39
2021/09/07 00:49:25;;;;;;;8.88;6.93;;;17.60;65.00;;;18.04;52.16;98277.50;4969286;28;20276;-38
2021/09/07 00:51:55;;;;;;;13.40;8.88;;;17.60;65.30;;;18.02;52.19;98284.94;4968015;28;20387;-38
2021/09/07 00:54:37;;;;;;;9.38;7.43;;;17.50;65.40;;;17.99;52.06;98279.09;4968593;28;20061;-39
2021/09/07 00:57:08;;;;;;;9.75;7.63;;;17.50;65.50;;;17.98;52.06;98283.66;4968798;28;20081;-39
2021/09/07 00:59:37;;;;;;;10.15;8.75;;;17.50;65.50;;;17.97;52.27;98281.16;4967849;28;20053;-39
2021/09/07 01:02:07;;;;;;;8.95;7.72;;;17.50;65.40;;;17.97;52.05;98287.41;4967816;28;20164;-39
2021/09/07 01:04:37;;;;;;;10.43;8.15;;;17.50;65.20;;;17.99;52.17;98287.19;4967768;28;20086;-39
2021/09/07 01:07:07;;;;;;;11.18;7.55;;;17.50;64.90;;;18.00;52.01;98278.09;4966310;28;20051;-38
2021/09/07 01:09:36;;;;;;;10.27;7.18;;;17.60;64.60;;;18.01;51.90;98279.75;4968261;28;20055;-39
2021/09/07 01:12:10;;;;;;;13.18;7.78;;;17.60;64.50;;;18.01;51.91;98279.75;4968612;28;20054;-39
2021/09/07 01:14:40;;;;;;;8.80;6.75;;;17.60;64.80;;;17.99;51.91;98285.34;4966831;28;20453;-39
2021/09/07 01:17:17;;;;;;;9.75;7.43;;;17.50;64.50;;;17.95;51.95;98281.38;4968335;28;20050;-39
2021/09/07 01:19:49;;;;;;;10.13;7.10;;;17.40;65.00;;;17.94;52.05;98278.88;4967676;28;20460;-39
2021/09/07 01:22:20;;;;;;;9.48;7.30;;;17.40;64.70;;;17.94;51.90;98276.19;4968983;28;20065;-39
2021/09/07 01:24:49;;;;;;;9.10;7.53;;;17.50;64.80;;;17.91;51.99;98280.06;4968222;28;20345;-39
2021/09/07 01:27:20;;;;;;;12.32;7.40;;;17.40;64.70;;;17.90;51.91;98265.78;4967448;28;20062;-39
2021/09/07 01:29:48;;;;;;;9.65;7.80;;;17.40;64.90;;;17.89;52.08;98271.34;4967422;28;20057;-38
2021/09/07 01:32:18;;;;;;;9.60;7.63;;;17.40;64.90;;;17.85;52.28;98270.91;4966885;28;20054;-39
2021/09/07 01:34:46;;;;;;;10.85;8.10;;;17.40;65.10;;;17.81;52.24;98268.75;4966347;28;20055;-39
2021/09/07 01:37:14;;;;;;;9.15;7.80;;;17.30;65.30;;;17.77;52.16;98271.00;4967491;28;20218;-39
2021/09/07 01:39:42;;;;;;;9.55;7.45;;;17.30;65.40;;;17.75;52.34;98264.16;4968300;28;20046;-39
2021/09/07 01:42:10;;;;;;;11.13;7.28;;;17.20;65.50;;;17.74;52.48;98266.00;4967596;28;20047;-39
2021/09/07 01:44:43;;;;;;;10.05;7.47;;;17.30;65.60;;;17.75;52.61;98274.91;4969164;28;20050;-39
2021/09/07 01:47:11;;;;;;;13.23;8.52;;;17.30;66.00;;;17.71;52.72;98274.47;4967148;28;20058;-39
2021/09/07 01:49:39;;;;;;;11.05;7.65;;;17.20;65.80;;;17.70;52.83;98268.25;4966875;28;20061;-39
2021/09/07 01:52:13;;;;;;;9.57;8.00;;;17.20;65.90;;;17.69;52.70;98268.44;4967360;28;20068;-39
2021/09/07 01:54:47;;;;;;;9.43;7.55;;;17.20;65.80;;;17.69;52.57;98269.25;4966728;28;20062;-39
2021/09/07 01:57:17;;;;;;;7.95;7.10;;;17.30;65.80;;;17.69;52.63;98271.13;4965174;28;20065;-39
2021/09/07 01:59:45;;;;;;;9.43;6.90;;;17.30;65.30;;;17.70;52.57;98268.25;4967079;28;20049;-39
2021/09/07 02:02:13;;;;;;;9.65;8.25;;;17.30;65.10;;;17.70;52.32;98262.03;4966395;28;20061;-39
2021/09/07 02:04:46;;;;;;;8.55;7.03;;;17.20;65.00;;;17.70;52.56;98262.88;4966856;28;20057;-39
2021/09/07 02:07:15;;;;;;;10.98;7.88;;;17.30;65.10;;;17.71;52.41;98253.75;4966968;28;20161;-39
2021/09/07 02:09:43;;;;;;;10.25;8.05;;;17.30;65.10;;;17.66;52.84;98263.41;4967560;28;20067;-39
2021/09/07 02:12:11;;;;;;;9.50;7.38;;;17.20;65.40;;;17.61;52.75;98260.50;4965218;28;20067;-39
2021/09/07 02:14:40;;;;;;;8.95;7.22;;;17.10;66.00;;;17.54;53.02;98265.78;4965959;28;20054;-39
2021/09/07 02:17:09;;;;;;;10.75;7.68;;;17.00;66.30;;;17.51;53.10;98263.50;4967475;28;20261;-39
2021/09/07 02:19:37;;;;;;;13.27;7.85;;;17.00;66.50;;;17.48;53.35;98256.59;4966920;28;20366;-39
2021/09/07 02:22:05;;;;;;;9.70;7.22;;;17.00;66.80;;;17.44;53.51;98258.03;4966659;28;20054;-39
2021/09/07 02:24:33;;;;;;;15.07;9.23;;;16.90;67.00;;;17.41;53.64;98260.25;4966565;28;20256;-39
2021/09/07 02:27:03;;;;;;;10.27;7.00;;;16.90;67.30;;;17.39;53.57;98257.78;4966619;28;20058;-39
2021/09/07 02:29:32;;;;;;;11.68;8.23;;;16.90;67.10;;;17.39;53.44;98263.16;4966650;28;20061;-39
2021/09/07 02:32:00;;;;;;;9.63;8.40;;;16.90;67.10;;;17.37;53.58;98267.91;4966853;28;20057;-39
2021/09/07 02:34:29;;;;;;;11.25;8.98;;;16.90;67.00;;;17.35;53.13;98259.19;4966238;28;20051;-38
2021/09/07 02:36:58;;;;;;;10.45;7.47;;;16.80;66.70;;;17.35;53.59;98261.88;4965377;28;20050;-39
2021/09/07 02:39:26;;;;;;;11.55;8.13;;;16.90;66.90;;;17.31;53.50;98255.16;4967042;28;20084;-39
2021/09/07 02:41:54;;;;;;;10.55;7.95;;;16.80;67.10;;;17.27;53.70;98260.13;4965646;28;20051;-39
2021/09/07 02:44:22;;;;;;;11.35;7.80;;;16.70;67.50;;;17.22;53.97;98270.59;4966786;28;20065;-39
2021/09/07 02:46:50;;;;;;;9.25;7.75;;;16.70;67.80;;;17.18;54.24;98266.63;4966212;28;20361;-39
2021/09/07 02:49:18;;;;;;;10.23;8.20;;;16.70;68.00;;;17.16;54.20;98274.06;4966864;28;20074;-39
2021/09/07 02:51:47;;;;;;;11.55;8.65;;;16.60;67.90;;;17.13;54.26;98261.78;4966582;28;20047;-39
2021/09/07 02:54:17;;;;;;;8.98;7.03;;;16.60;68.00;;;17.10;54.36;98258.69;4965915;28;20345;-39
2021/09/07 02:56:45;;;;;;;10.38;8.13;;;16.60;68.30;;;17.05;54.25;98253.00;4966274;28;20046;-39
2021/09/07 02:59:13;;;;;;;13.02;7.18;;;16.50;68.50;;;17.06;54.41;98254.66;4966009;28;20051;-39
2021/09/07 03:01:41;;;;;;;10.48;8.25;;;16.60;68.40;;;17.04;54.50;98252.19;4965891;28;20264;-39
2021/09/07 03:04:09;;;;;;;11.63;8.38;;;16.60;68.20;;;17.04;54.40;98257.56;4966965;28;20049;-39
2021/09/07 03:06:38;;;;;;;11.85;8.60;;;16.60;68.10;;;17.02;54.35;98253.38;4966218;28;20072;-39
2021/09/07 03:09:06;;;;;;;11.70;9.10;;;16.50;68.20;;;17.00;54.30;98250.03;4966204;28;20069;-39
2021/09/07 03:11:34;;;;;;;11.77;7.97;;;16.50;68.30;;;17.00;54.31;98258.09;4965556;28;20066;-39
2021/09/07 03:14:02;;;;;;;11.40;8.30;;;16.50;68.30;;;16.98;54.35;98252.09;4966199;28;20252;-39
2021/09/07 03:16:34;;;;;;;10.15;8.02;;;16.50;68.30;;;16.98;54.32;98244.84;4965093;28;20053;-39
2021/09/07 03:19:03;;;;;;;10.50;7.75;;;16.50;69.00;;;16.99;54.39;98243.84;4966756;28;20510;-39
2021/09/07 03:21:32;;;;;;;12.90;8.15;;;16.60;68.00;;;16.97;54.46;98237.81;4965542;28;20050;-39
2021/09/07 03:24:00;;;;;;;11.68;8.57;;;16.50;68.00;;;16.97;54.46;98245.06;4966451;28;20047;-39
2021/09/07 03:26:29;;;;;;;11.13;7.97;;;16.50;68.10;;;16.98;54.48;98236.78;4965744;28;20061;-39
2021/09/07 03:28:57;;;;;;;10.65;7.97;;;16.60;67.90;;;17.03;54.56;98236.22;4965768;28;20066;-39
2021/09/07 03:31:26;;;;;;;15.07;7.75;;;16.70;67.70;;;17.07;54.48;98237.50;4968440;28;20062;-39
2021/09/07 03:33:55;;;;;;;9.50;8.13;;;16.80;67.30;;;17.09;54.15;98232.78;4969891;28;20067;-39
2021/09/07 03:36:23;;;;;;;11.00;8.13;;;16.80;67.20;;;17.09;54.10;98230.09;4969862;28;20067;-39
2021/09/07 03:38:51;;;;;;;11.27;8.18;;;16.70;67.20;;;17.07;54.09;98226.75;4970775;28;20229;-39
2021/09/07 03:41:20;;;;;;;10.68;8.93;;;16.70;67.40;;;17.05;54.33;98224.25;4969631;28;20051;-39
2021/09/07 03:43:50;;;;;;;11.18;8.80;;;16.70;67.50;;;17.06;54.34;98222.38;4967708;28;20068;-38
2021/09/07 03:46:18;;;;;;;11.45;7.85;;;16.70;67.40;;;17.05;54.34;98221.56;4969992;28;20055;-39
2021/09/07 03:48:47;;;;;;;12.02;8.27;;;16.70;67.50;;;17.04;54.36;98225.28;4967714;28;20065;-39
2021/09/07 03:51:15;;;;;;;10.95;8.60;;;16.70;67.60;;;17.05;54.59;98231.50;4968655;28;20277;-39
2021/09/07 03:53:46;;;;;;;11.32;9.25;;;16.70;67.60;;;17.06;54.36;98225.06;4969218;28;20237;-39
2021/09/07 03:56:16;;;;;;;10.80;8.60;;;16.70;67.80;;;16.99;54.70;98226.88;4968940;28;20062;-39
2021/09/07 03:58:46;;;;;;;13.13;9.43;;;16.50;68.10;;;16.97;54.44;98226.22;4968777;28;20065;-39
2021/09/07 04:01:14;;;;;;;11.63;8.65;;;16.50;68.20;;;16.96;54.46;98224.53;4969444;28;20065;-39
2021/09/07 04:03:44;;;;;;;10.02;8.20;;;16.50;68.20;;;16.95;54.77;98237.16;4969275;28;20043;-39
2021/09/07 04:06:14;;;;;;;11.30;9.32;;;16.50;68.20;;;16.90;54.63;98235.06;4968888;28;20375;-39
2021/09/07 04:08:42;;;;;;;11.15;8.65;;;16.40;68.40;;;16.90;54.42;98228.81;4970862;28;20063;-39
2021/09/07 04:11:12;;;;;;;11.05;8.23;;;16.40;68.30;;;16.91;54.43;98230.50;4969835;28;20063;-39
2021/09/07 04:13:40;;;;;;;10.80;7.95;;;16.40;68.10;;;16.93;54.59;98233.84;4969639;28;20051;-39
2021/09/07 04:16:09;;;;;;;12.65;8.55;;;16.50;68.00;;;16.96;54.44;98232.63;4969494;28;20055;-39
2021/09/07 04:18:37;;;;;;;10.00;8.25;;;16.60;67.70;;;16.95;54.44;98233.66;4968888;28;20055;-39
2021/09/07 04:21:08;;;;;;;11.13;8.23;;;16.50;67.70;;;16.92;54.50;98241.06;4970443;28;20043;-39
2021/09/07 04:23:36;;;;;;;15.73;8.55;;;16.50;68.00;;;16.90;54.47;98237.75;4968760;28;20112;-39
2021/09/07 04:26:05;;;;;;;12.38;9.38;;;16.40;68.00;;;16.90;54.46;98239.56;4968929;28;20058;-39
2021/09/07 04:28:33;;;;;;;13.07;9.52;;;16.50;67.90;;;16.88;54.43;98234.38;4968525;28;20058;-39
2021/09/07 04:31:00;;;;;;;11.18;8.65;;;16.40;67.90;;;16.86;54.72;98244.50;4969360;28;20477;-39
2021/09/07 04:33:28;;;;;;;10.38;7.68;;;16.50;68.00;;;16.85;54.67;98244.69;4969626;28;20425;-39
2021/09/07 04:35:56;;;;;;;10.68;9.05;;;16.50;67.80;;;16.83;54.77;98239.50;4969101;28;20054;-39
2021/09/07 04:38:24;;;;;;;11.02;8.35;;;16.50;68.00;;;16.85;54.67;98232.06;4969011;28;20054;-39
2021/09/07 04:40:52;;;;;;;12.40;8.63;;;16.60;67.60;;;16.89;54.78;98237.91;4968097;28;20061;-39
2021/09/07 04:43:20;;;;;;;13.23;9.82;;;16.70;67.60;;;16.92;54.59;98230.31;4967897;28;20054;-39
2021/09/07 04:45:50;;;;;;;11.73;8.52;;;16.70;67.40;;;16.92;54.60;98235.69;4967579;28;20105;-39
2021/09/07 04:48:19;;;;;;;11.35;8.13;;;16.70;67.40;;;16.97;54.61;98236.97;4967988;28;20078;-38
2021/09/07 04:50:48;;;;;;;12.27;9.23;;;16.70;67.30;;;17.00;54.61;98239.28;4969018;28;20248;-39
2021/09/07 04:53:16;;;;;;;10.63;8.60;;;16.80;67.00;;;16.98;54.57;98236.78;4967025;28;20064;-39
2021/09/07 04:55:44;;;;;;;11.23;8.25;;;16.70;67.10;;;16.92;54.77;98238.38;4967621;28;20053;-39
2021/09/07 04:58:12;;;;;;;11.38;8.52;;;16.70;67.60;;;16.91;54.80;98242.09;4969483;28;20057;-39
2021/09/07 05:00:40;;;;;;;11.15;8.00;;;16.60;67.50;;;16.92;54.88;98241.06;4968680;28;20051;-39
2021/09/07 05:03:08;;;;;;;10.07;8.68;;;16.60;67.50;;;16.87;54.85;98232.72;4967950;28;20456;-39
2021/09/07 05:05:36;;;;;;;14.52;8.07;;;16.60;67.70;;;16.86;54.94;98241.78;4968118;28;20375;-39
2021/09/07 05:08:04;;;;;;;10.15;7.60;;;16.60;67.80;;;16.86;54.81;98249.88;4966224;28;20055;-39
2021/09/07 05:10:32;;;;;;;13.00;10.15;;;16.60;67.70;;;16.88;54.79;98255.88;4969573;28;20252;-39
2021/09/07 05:13:00;;;;;;;13.55;8.05;;;16.60;67.80;;;16.91;54.83;98258.22;4968578;28;20305;-39
2021/09/07 05:15:28;;;;;;;13.32;8.50;;;16.60;67.60;;;16.95;54.81;98247.94;4968230;28;20356;-39
2021/09/07 05:17:56;;;;;;;12.55;8.95;;;16.70;67.70;;;16.99;54.67;98248.38;4968662;28;20061;-39
2021/09/07 05:20:24;;;;;;;11.68;7.25;;;16.70;67.70;;;17.01;54.58;98252.56;4970266;28;20067;-39
2021/09/07 05:22:52;;;;;;;12.55;8.68;;;16.80;67.40;;;17.02;54.44;98256.06;4966788;28;20069;-39
2021/09/07 05:25:20;;;;;;;8.50;7.63;;;16.70;67.30;;;17.03;54.74;98257.75;4967136;28;20051;-39
2021/09/07 05:27:48;;;;;;;11.20;8.75;;;16.70;67.30;;;17.05;54.71;98258.41;4968103;28;20068;-39
2021/09/07 05:30:18;;;;;;;11.90;7.85;;;16.80;67.50;;;17.10;54.67;98253.28;4967028;28;20046;-39
2021/09/07 05:32:46;;;;;;;13.27;8.60;;;16.80;67.40;;;17.15;54.66;98266.16;4968092;28;20057;-39
2021/09/07 05:35:14;;;;;;;11.10;7.47;;;16.90;67.40;;;17.16;54.73;98260.59;4967282;28;20174;-39
2021/09/07 05:37:42;;;;;;;10.40;7.72;;;16.90;67.20;;;17.18;54.60;98268.50;4966380;28;20359;-39
2021/09/07 05:40:14;;;;;;;10.15;7.93;;;16.90;67.20;;;17.21;54.53;98263.53;4967282;28;20349;-39
2021/09/07 05:42:43;;;;;;;11.35;7.50;;;17.00;67.20;;;17.24;54.61;98273.13;4966059;28;20066;-39
2021/09/07 05:45:15;;;;;;;11.90;8.10;;;17.00;67.10;;;17.25;54.41;98277.47;4967084;28;20051;-39
2021/09/07 05:47:44;;;;;;;12.68;8.15;;;17.00;67.00;;;17.27;54.29;98283.47;4966852;28;20046;-39
2021/09/07 05:50:15;;;;;;;9.20;7.43;;;17.00;66.80;;;17.29;54.33;98273.38;4966582;28;20051;-38
2021/09/07 05:52:44;;;;;;;8.63;7.43;;;17.00;66.80;;;17.32;54.41;98284.59;4966867;28;20335;-38
2021/09/07 05:55:13;;;;;;;11.48;8.02;;;17.10;66.80;;;17.37;54.66;98278.66;4965519;28;20065;-39
2021/09/07 05:57:42;;;;;;;9.15;7.80;;;17.20;66.90;;;17.40;54.42;98282.81;4965392;28;20420;-38
2021/09/07 06:00:11;;;;;;;11.65;8.57;;;17.20;66.60;;;17.41;54.46;98285.34;4967057;28;20352;-38
2021/09/07 06:02:41;;;;;;;10.60;8.32;;;17.20;66.80;;;17.45;54.76;98281.22;4966416;28;20379;-38
2021/09/07 06:05:10;;;;;;;14.07;9.13;;;17.30;67.30;;;17.49;55.04;98281.69;4967737;28;20059;-38
2021/09/07 06:07:39;;;;;;;13.90;9.63;;;17.30;67.40;;;17.55;54.74;98296.25;4966826;28;20072;-38
2021/09/07 06:10:09;;;;;;;13.05;9.13;;;17.40;67.30;;;17.56;55.00;98295.22;4966040;28;20065;-38
2021/09/07 06:12:38;;;;;;;16.08;10.23;;;17.40;67.50;;;17.57;55.03;98296.91;4966543;28;20055;-38
2021/09/07 06:15:08;;;;;;;17.67;10.32;;;17.40;67.60;;;17.59;54.88;98292.16;4966145;28;20050;-38
2021/09/07 06:17:36;;;;;;;21.33;11.40;;;17.30;67.60;;;17.59;54.83;98286.78;4965758;28;20059;-38
2021/09/07 06:20:05;;;;;;;22.08;11.65;;;17.30;67.80;;;17.59;55.11;98290.28;4967491;28;20057;-38
2021/09/07 06:22:34;;;;;;;16.33;10.82;;;17.40;68.00;;;17.60;55.15;98296.50;4967179;28;20057;-38
2021/09/07 06:25:03;;;;;;;20.40;11.82;;;17.40;68.10;;;17.60;55.41;98296.50;4965260;28;20364;-38
2021/09/07 06:27:31;;;;;;;17.85;9.65;;;17.40;68.20;;;17.62;55.35;98294.44;4965719;28;20175;-38
2021/09/07 06:29:59;;;;;;;18.45;11.68;;;17.40;68.10;;;17.67;55.65;98294.72;4965863;28;20352;-38
2021/09/07 06:32:27;;;;;;;21.58;10.50;;;17.50;68.50;;;17.71;55.67;98299.53;4966982;28;20062;-38
2021/09/07 06:34:55;;;;;;;17.55;10.88;;;17.60;68.80;;;17.76;55.97;98298.09;4967350;28;20356;-38
2021/09/07 06:37:23;;;;;;;20.45;10.85;;;17.60;69.00;;;17.81;55.71;98296.50;4966115;28;20058;-38
2021/09/07 06:39:51;;;;;;;15.00;9.45;;;17.70;68.90;;;17.83;55.20;98305.22;4967741;28;20050;-38
2021/09/07 06:42:19;;;;;;;13.65;9.43;;;17.70;68.00;;;17.84;55.20;98298.03;4965578;28;20275;-38
2021/09/07 06:44:46;;;;;;;10.20;8.48;;;17.70;68.00;;;17.86;55.26;98302.19;4967259;28;20059;-38
2021/09/07 06:47:14;;;;;;;10.70;9.05;;;17.70;67.70;;;17.90;55.13;98305.34;4965959;28;20058;-39
2021/09/07 06:49:42;;;;;;;8.80;7.75;;;17.80;67.70;;;17.97;55.16;98308.09;4965181;28;20313;-39
2021/09/07 06:52:10;;;;;;;10.35;8.57;;;17.80;67.70;;;18.04;55.18;98303.63;4965497;28;20399;-39
2021/09/07 06:54:38;;;;;;;12.98;9.77;;;18.00;67.40;;;18.09;55.00;98303.88;4966114;28;20375;-39
2021/09/07 06:57:06;;;;;;;10.10;8.43;;;18.10;67.30;;;18.18;55.07;98316.16;4967019;28;20065;-39
2021/09/07 06:59:34;;;;;;;12.40;8.35;;;18.10;67.40;;;18.25;55.26;98313.56;4966295;28;20053;-39
2021/09/07 07:02:02;;;;;;;11.68;8.55;;;18.30;67.40;;;18.30;55.25;98308.41;4965182;28;20234;-39
2021/09/07 07:04:31;;;;;;;12.40;8.73;;;18.40;67.20;;;18.34;55.19;98304.31;4965794;28;20059;-39
2021/09/07 07:06:58;;;;;;;10.90;8.63;;;18.40;67.20;;;18.41;55.21;98307.88;4966656;28;20374;-39
2021/09/07 07:09:26;;;;;;;12.00;8.38;;;18.50;67.10;;;18.49;54.91;98312.28;4965557;28;20062;-39
2021/09/07 07:11:54;;;;;;;12.95;8.73;;;18.60;67.70;;;18.57;54.94;98314.00;4965218;28;20068;-40
2021/09/07 07:14:22;;;;;;;13.18;9.38;;;18.60;66.60;;;18.64;54.67;98309.50;4966485;28;20050;-39
2021/09/07 07:16:50;;;;;;;10.77;8.27;;;18.80;66.20;;;18.74;54.80;98317.25;4965951;28;20112;-39
2021/09/07 07:19:18;;;;;;;11.98;8.27;;;18.90;66.20;;;18.82;54.59;98315.25;4967253;28;20069;-39
2021/09/07 07:21:47;;;;;;;10.75;9.20;;;19.00;65.70;;;18.92;54.49;98312.22;4966339;28;20050;-39
2021/09/07 07:24:17;;;;;;;10.80;8.50;;;19.10;65.70;;;18.99;54.15;98313.06;4965508;28;20244;-39
2021/09/07 07:27:02;;;;;;;9.18;7.88;;;19.20;65.10;;;19.05;53.85;98314.13;4965786;28;20055;-39
2021/09/07 07:29:31;;;;;;;9.05;7.97;;;19.30;64.50;;;19.13;53.82;98318.53;4964832;28;20389;-39
2021/09/07 07:31:59;;;;;;;15.05;8.63;;;19.40;64.30;;;19.20;53.63;98322.13;4982943;28;20794;-40
2021/09/07 07:34:27;;;;;;;11.18;7.82;;;19.40;64.00;;;19.26;53.46;98324.81;4993235;28;20055;-40
2021/09/07 07:36:57;;;;;;;11.38;7.53;;;19.50;64.00;;;19.34;53.48;98323.00;4988320;28;20065;-40
2021/09/07 07:39:32;;;;;;;9.88;7.65;;;19.60;64.00;;;19.40;53.23;98323.03;4990265;28;20054;-39
2021/09/07 07:42:04;;;;;;;11.70;8.68;;;19.70;63.80;;;19.44;53.05;98324.31;5001258;28;20264;-40
2021/09/07 07:44:39;;;;;;;9.98;7.00;;;19.70;63.50;;;19.50;53.04;98324.50;4998437;28;20069;-39
2021/09/07 07:47:09;;;;;;;16.02;7.93;;;19.70;63.40;;;19.53;52.92;98327.66;5000646;28;20054;-39
2021/09/07 07:49:40;;;;;;;9.90;7.05;;;19.80;63.00;;;19.59;52.62;98329.53;4985354;28;20452;-39
2021/09/07 07:52:09;;;;;;;10.30;7.40;;;19.80;63.00;;;19.61;52.86;98329.34;4981688;28;20046;-39
2021/09/07 07:54:39;;;;;;;10.05;8.02;;;19.80;62.90;;;19.64;52.60;98337.88;4981923;28;20086;-39
2021/09/07 07:57:08;;;;;;;10.00;7.65;;;19.80;63.00;;;19.70;52.80;98332.69;4980980;28;20260;-40
2021/09/07 07:59:36;;;;;;;9.45;7.65;;;19.90;63.10;;;19.76;52.48;98329.22;4979708;28;20057;-39
2021/09/07 08:02:07;;;;;;;11.27;8.05;;;20.00;62.60;;;19.81;52.00;98335.69;4978265;28;20053;-39
2021/09/07 08:04:53;;;;;;;13.38;7.63;;;20.00;62.10;;;19.88;52.26;98341.09;4980460;28;20047;-39
2021/09/07 08:07:22;;;;;;;11.13;7.85;;;20.10;62.10;;;19.94;51.95;98340.25;4978749;28;20049;-39
2021/09/07 08:09:50;;;;;;;14.25;7.75;;;20.20;61.70;;;20.00;51.76;98346.72;4980136;28;20059;-39
2021/09/07 08:12:18;;;;;;;19.15;9.30;;;20.30;61.50;;;20.05;51.76;98345.06;4979671;28;20096;-39
2021/09/07 08:14:46;;;;;;;16.20;9.27;;;20.30;61.70;;;20.13;51.45;98340.53;4981235;28;20369;-39
2021/09/07 08:17:15;;;;;;;21.45;8.82;;;20.40;61.40;;;20.16;51.18;98338.25;4981944;28;20059;-39
2021/09/07 08:19:43;;;;;;;17.67;8.88;;;20.40;60.50;;;20.21;51.09;98340.31;4981497;28;20046;-39
2021/09/07 08:22:13;;;;;;;18.55;9.88;;;20.50;61.00;;;20.30;51.93;98343.63;4985765;28;20229;-39
2021/09/07 08:24:42;;;;;;;15.73;8.98;;;20.60;61.70;;;20.38;52.01;98347.00;4984809;28;20046;-39
2021/09/07 08:27:09;;;;;;;23.25;8.40;;;20.70;62.10;;;20.48;51.81;98348.47;4984419;28;20328;-39
2021/09/07 08:29:37;;;;;;;16.02;9.15;;;20.80;61.70;;;20.55;51.93;98347.41;4984887;28;20420;-39
2021/09/07 08:32:08;;;;;;;16.67;8.30;;;20.90;61.70;;;20.64;52.19;98348.06;4986178;28;20333;-39
2021/09/07 08:34:37;;;;;;;14.77;8.02;;;20.90;62.00;;;20.68;51.49;98341.19;4989229;28;20046;-39
2021/09/07 08:37:05;;;;;;;15.15;7.75;;;21.00;61.40;;;20.77;51.93;98341.81;5004405;28;20062;-39
2021/09/07 08:39:33;;;;;;;18.35;8.80;;;21.10;61.70;;;20.82;51.35;98340.16;5002373;28;20348;-39
2021/09/07 08:42:01;;;;;;;12.73;8.00;;;21.10;61.10;;;20.88;51.13;98354.72;4996487;28;20054;-39
2021/09/07 08:44:29;;;;;;;8.70;7.20;;;21.20;60.60;;;20.93;50.67;98349.47;4985071;28;20055;-39
2021/09/07 08:46:57;;;;;;;10.77;7.82;;;21.20;60.00;;;20.97;49.33;98345.31;4982127;28;20057;-39
2021/09/07 08:49:25;;;;;;;11.18;7.45;;;21.20;58.80;;;21.00;48.83;98344.91;4983665;28;20126;-40
2021/09/07 08:51:53;;;;;;;11.75;8.10;;;21.30;58.10;;;21.02;49.16;98348.22;4983554;28;20056;-39
2021/09/07 08:54:22;;;;;;;12.88;7.13;;;21.30;58.50;;;21.05;48.90;98352.38;4984034;28;20054;-39
2021/09/07 08:56:53;;;;;;;8.20;6.35;;;21.30;57.80;;;21.09;48.60;98355.50;4984740;28;20055;-39
2021/09/07 08:59:21;;;;;;;9.55;7.03;;;21.30;57.50;;;21.12;49.14;98352.38;4983845;28;20051;-39
2021/09/07 09:01:56;;;;;;;9.65;7.47;;;21.30;58.30;;;21.17;49.49;98350.69;4983338;28;20050;-39
2021/09/07 09:04:31;;;;;;;11.10;7.40;;;21.50;58.80;;;21.23;48.82;98355.25;4983274;28;20050;-39
2021/09/07 09:07:00;;;;;;;9.30;7.10;;;21.50;58.00;;;21.28;48.73;98356.50;4984434;28;20053;-39
2021/09/07 09:09:38;;;;;;;9.30;6.90;;;21.50;58.10;;;21.31;48.63;98359.63;4982497;28;20063;-39
2021/09/07 09:12:07;;;;;;;8.05;6.15;;;21.60;57.10;;;21.33;48.53;98352.09;4982856;28;20241;-39
2021/09/07 09:14:47;;;;;;;8.75;6.88;;;21.60;57.20;;;21.39;47.93;98361.25;4982340;28;20071;-39
2021/09/07 09:17:17;;;;;;;9.85;6.45;;;21.70;56.40;;;21.43;47.56;98352.50;4984192;28;20054;-39
2021/09/07 09:19:58;;;;;;;9.43;7.28;;;21.70;56.30;;;21.49;47.59;98353.53;4982104;28;20057;-39
2021/09/07 09:22:45;;;;;;;9.18;6.57;;;21.80;55.00;;;21.55;47.13;98357.28;4983547;28;20047;-39
2021/09/07 09:25:20;;;;;;;8.38;6.28;;;21.90;54.70;;;21.61;45.57;98359.13;4972380;28;20068;-39
2021/09/07 09:28:20;;;;;;;9.48;6.55;;;21.90;54.50;;;21.65;44.88;98359.53;4984408;28;20051;-39
2021/09/07 09:30:50;;;;;;;8.38;6.55;;;21.90;53.20;;;21.72;46.38;98363.88;4981073;28;20050;-39
2021/09/07 09:33:22;;;;;;;15.30;7.80;;;22.00;54.80;;;21.80;46.46;98360.91;4984157;28;20229;-39
2021/09/07 09:36:01;;;;;;;7.88;5.95;;;22.00;55.20;;;21.85;45.42;98356.69;4985763;28;20058;-39
2021/09/07 09:38:34;;;;;;;9.52;6.88;;;22.10;53.90;;;21.89;45.69;98353.38;4998456;28;20058;-39
2021/09/07 09:41:05;;;;;;;9.23;7.10;;;22.20;54.30;;;21.94;46.17;98353.53;4983214;28;20054;-39
2021/09/07 09:43:44;;;;;;;9.20;7.32;;;22.20;54.50;;;21.98;45.88;98357.50;4982581;28;20070;-40
2021/09/07 09:46:39;;;;;;;7.15;6.40;;;22.30;54.40;;;22.06;46.12;98355.56;4983539;28;20045;-39
2021/09/07 09:49:13;;;;;;;10.32;7.82;;;22.40;53.90;;;22.11;45.04;98356.56;4981868;28;20349;-39
2021/09/07 09:51:42;;;;;;;9.88;7.13;;;22.40;52.90;;;22.14;45.39;98353.44;4983178;28;20067;-39
2021/09/07 09:54:25;;;;;;;8.77;5.93;;;22.40;53.70;;;22.19;45.49;98356.28;4980404;28;20064;-39
2021/09/07 09:56:55;;;;;;;9.23;7.10;;;22.40;54.20;;;22.22;45.35;98346.91;4980077;28;20563;-39
2021/09/07 09:59:24;;;;;;;9.35;7.03;;;22.50;53.80;;;22.27;45.00;98346.28;4981245;28;20053;-39
2021/09/07 10:01:52;;;;;;;7.75;6.38;;;22.50;53.60;;;22.32;45.39;98357.31;4983975;28;20061;-39
2021/09/07 10:04:22;;;;;;;8.85;6.75;;;22.60;53.70;;;22.34;44.86;98355.19;4983081;28;20042;-40
2021/09/07 10:06:51;;;;;;;10.00;7.38;;;22.70;53.10;;;22.36;43.77;98351.22;4984197;28;20053;-39
2021/09/07 10:09:26;;;;;;;9.50;6.53;;;22.60;51.80;;;22.39;43.91;98350.78;4983802;28;20054;-39
2021/09/07 10:12:22;;;;;;;10.40;6.78;;;22.60;51.90;;;22.44;43.40;98350.09;4983000;28;20118;-39
2021/09/07 10:15:07;;;;;;;7.72;6.63;;;22.70;49.60;;;22.48;43.19;98350.50;4981703;28;20055;-39
2021/09/07 10:23:17;;;;;;;9.60;6.63;;;22.80;49.80;;;22.57;40.82;98338.31;4976032;28;20398;-39
2021/09/07 10:26:01;;;;;;;7.45;5.70;;;22.80;46.60;;;22.60;42.08;98336.00;4974430;28;20267;-39
2021/09/07 10:28:44;;;;;;;6.82;5.65;;;22.90;48.10;;;22.64;41.72;98332.84;4970929;28;20062;-39
2021/09/07 10:31:17;;;;;;;7.78;6.35;;;22.90;47.10;;;22.68;41.36;98337.59;4971207;28;20051;-39
2021/09/07 10:34:02;;;;;;;7.68;6.00;;;23.00;48.70;;;22.73;39.30;98329.59;4970276;28;20050;-39